Current | Forecast
Updated: 9:30 PM CET on February 21, 2018
Observed at Vigo, Spain
Temperature 8°C
Windchill 6°C
Humidity 66%
Dew Point 2°C
Wind NNE at 11 km/h
Pressure 1012 hPa (Steady)
Conditions Clear
Visibility -
UV N/A
Clouds
Yesterday's Maximum 17°C
Yesterday's Minimum 7°C approx.
Yesterday's Heating Degree Days 11 approx.
Sunrise8:22 AM CET
Sunset7:13 PM CET
Moon Rise11:26 AM CET
Moon Set12:04 AM CET
Moon PhaseMoon Phase
Waxing Crescent
Raw METARMETAR LEVX 212030Z 02006KT 340V050 CAVOK 08/02 Q1012 NOSIG


Monday
. High: 62° F.
Tuesday
. High: 60° F.
Wednesday
. High: 59° F.
Thursday
. High: 64° F.
Friday
. High: 66° F.
Saturday
. High: 60° F.
Sunday
. High: 68° F.
Monday
. High: 77° F.

Click here for Marine Information
Scientific forecaster discussion (NWS)

Units: English | Metric

Find the Weather for any City, State or Zipcode, or Country:

U.S. State List | Severe Weather | Tropical Storms | Ski Conditions
United States | Canada | Central America | South America | Asia | Europe | Australia | Africa | Islands

Weather Underground

© Copyright 2018
The Weather Company, LLC